Detall de PIREP

Printer-friendly versionPDF version

[2010/08/10 10:54:00]
Flight IATA:CT1004
Pilot Number:042
Company ICAO:CAT
Aircraft Type:B744/E
PAX:300
Departing Airport: LEBL
Destination Airport: LEMD
Alternate Airport:LEMG
Online: VATSIM
Route:SENIA G7 ADUXO
Flight Level:FL230
No Slew and time accel
No pause
Crash detect
Detect pilot in Cockpit between each 30 and 45 minutes
10:54 Zero fuel Weight: 466689 Lbs, Fuel Weight: 206808 Lbs
10:54 VATSIM:LEBL 101030Z 14010KT 110V180 9999 SCT020 26/19 Q1017 NOSIG
10:54 VATSIM:LEMD 101030Z 16001KT CAVOK 32/12 Q1019 NOSIG
10:54 VOICE CATALONIAN/SUMMER CHARTER
10:55 Parking Brakes off
10:58 Take-off
10:58 Take off Weight: 671736 Lbs
10:58 Wind: 151 @ 010 Knots Heading: 196
10:58 POS N41 17 41 E002 05 17
10:58 Gear Up: 194 Knots
10:58 Flaps:3 at 194 Knots
10:58 Flaps:2 at 202 Knots
10:58 Flaps:1 at 224 Knots
10:59 Flaps:0 at 277 Knots
11:13 Wind:284@022 Knots Heading: 249 Ground Speed: 432 Knots Altitude 21328 ft
11:13 TOC
11:13 Fuel Weight: 193739 Lb
11:28 Wind:289@022 Knots Heading: 251 Ground Speed: 448 Knots Altitude 23156 ft
11:30 TOD
11:30 Fuel Weight: 187294 Lb
11:43 Wind:282@020 Knots Heading: 324 Ground Speed: 307 Knots Altitude 12185 ft
11:45 Flaps:1 at 227 Knots
11:45 Flaps:2 at 223 Knots
11:47 Flaps:3 at 199 Knots
11:47 Flaps:4 at 188 Knots
11:48 Flaps:5 at 176 Knots
11:48 Gear Down: 174 Knots
11:49 Flaps:6 at 175 Knots
11:54 TouchDown:Rate -101 ft/min Speed: 157 Knots
11:54 VATSIM:LEMD 101130Z 23006KT 160V280 CAVOK 34/11 Q1019 NOSIG
11:54 Land
11:54 Wind:220@005 Knots
11:54 Heading: 181
11:54 Flight Duration: 00:56
11:54 Landing Weight: 646104 Lbs
11:54 POS N40 30 37 W003 33 32
11:56 Parking brakes on
11:56 Block to Block Duration: 01:01
11:56 Final Fuel: 178973 Lbls
11:56Spent Fuel: 27835 Lbls
11:56 Flight Length: 230 NM
11:56 TOD Land Length: 108 NM

Exportar CSV

Powered by Drupal - Modified by Danger4k